默认 日期 大小 文件数 浏览量 最新下载 xml
dark web磁力链接相关资源由用户搜索指令自动获取,结果来源于网络,本站不存储任何资料,亦不承担任何责任,请于24小时内删除,搜索到8219个磁力,显示前4000条数据,用时49ms。
    {"72-Conclusion.mkv": 16947267, "42-Introduction.mkv": 24414702, "78-Qubes_Basics.mkv": 87213833, "[CourseClub.Me].url": 122, "supplemental_assets": {"Qubes.pdf": 849506, "Crypto.pdf": 1462740, "Emails.pdf": 520877, "mixers.txt": 127, "Encryption.pdf": ...
创建时间: 2022-04-16 06:23:46 大小:6.26 GB 文件数量:107 热度:8 最近下载:2025-09-19 06:33:05
    {"72-Conclusion.mkv": 16947267, "42-Introduction.mkv": 24414702, "78-Qubes_Basics.mkv": 87213833, "supplemental_assets": {"Qubes.pdf": 849506, "Crypto.pdf": 1462740, "Emails.pdf": 520877, "mixers.txt": 127, "Encryption.pdf": 574583, "mail-providers.txt": ...
创建时间: 2022-04-22 13:50:57 大小:6.26 GB 文件数量:103 热度:10 最近下载:2025-09-20 01:49:02
    ... dark web.mp4": 27510254, "3. What is dark web.srt": 3707, "5. How The Dark web ... ": 6454}, "4. Dark web Risks": {"1. Dangers of the dark web.mp4": 11036319, "1 ... , "2. Visiting dark web markets.mp4": 78088702, "2. Visiting dark web markets.srt": 8254 ...
创建时间: 2022-04-26 09:54:58 大小:443.21 MB 文件数量:46 热度:6 最近下载:2025-01-10 10:48:01
    {"1.jpg": 206474, "2.jpg": 359844, "3.jpg": 509421, "4.jpg": 541253, "5.jpg": 431832, "6.jpg": 327289, "7.jpg": 407403, "8.jpg": 440700, "9.jpg": 401582}
创建时间: 2022-05-22 14:57:57 大小:3.46 MB 文件数量:9 热度:5 最近下载:2025-05-06 17:54:02
    ... .mp4": 21588380, "the-ultimate-dark-web-anonymity-privacy-security-course_meta.xml ... Disadvantages_of_Using_The_TOR_Browser_on_Windows_OS_X_or_Linux.mp4": 17459137, "The Ultimate Dark Web, Anonymity, Privacy & Security Course_torrent.txt ...
创建时间: 2022-06-13 20:39:55 大小:9.15 GB 文件数量:550 热度:10 最近下载:2025-09-19 21:46:04
    {"72-Conclusion.mkv": 16947267, "42-Introduction.mkv": 24414702, "78-Qubes_Basics.mkv": 87213833, "supplemental_assets": {"Qubes.pdf": 849506, "Crypto.pdf": 1462740, "Emails.pdf": 520877, "mixers.txt": 127, "Encryption.pdf": 574583, "mail-providers.txt": ...
创建时间: 2022-07-05 08:51:58 大小:6.26 GB 文件数量:104 热度:7 最近下载:2025-09-18 20:55:10
    ... 说明.txt": 986, "Unfriended.Dark.Web.2018.1080p.Blu-ray.AVC ... 2:暗网.Unfriended.Dark.Web.2018.1080p.Blu-ray.AVC ...
创建时间: 2022-07-10 05:18:52 大小:30.46 GB 文件数量:6 热度:10 最近下载:2025-08-25 23:20:02
    {"Unfriended.Dark.Web.2018.BluRay.1080p.x265.10bit-MiniHD.mkv": 3712683614, "Unfriended.Dark.Web.2018.BluRay.1080p.x265.10bit-MiniHD.nfo": 399}
创建时间: 2022-07-17 22:13:04 大小:3.46 GB 文件数量:2 热度:63 最近下载:2025-10-16 22:56:02
    {"RARBG.txt": 31, "Cyber.Crime.-.The.Dark.Web.Uncovered.2022.1080p.AMZN.WEB-DL.DD+2.0.H.264-Cinefeel.mkv": 2782724459}
创建时间: 2022-08-14 20:34:32 大小:2.59 GB 文件数量:2 热度:5 最近下载:2025-02-16 13:04:03
    {"Dark.Web.Cicada.3301.2021.BluRay.1080p.x265.10bit.DDP5.1-MiniHD.mkv": 6535985087}
创建时间: 2022-08-16 19:00:06 大小:6.09 GB 文件数量:1 热度:25 最近下载:2025-09-19 01:57:08
    ... the Dark Web.mp4": 35626726, "6. Accessing the Dark Web.srt": 7608, "7. Dark Web ... Market Places.mp4": 184278420, "7. Dark Web ... "1. Investigating the Dark Web.mp4": 16084492, "1. Investigating the Dark Web.srt": 2162 ...
创建时间: 2022-09-01 23:22:23 大小:1 GB 文件数量:58 热度:8 最近下载:2025-06-14 04:27:02
    ... .vtt": 8519}, "4 - Accessing the Dark Net - Entry Points": {"30 - 16240996 ...
创建时间: 2022-09-16 23:39:27 大小:3.83 GB 文件数量:230 热度:7 最近下载:2025-09-19 06:33:03
    ... Harper - Finding Dick On The Dark Web.mp4": 944590161, "★★★★美女裸 ...
创建时间: 2022-09-17 19:48:50 大小:973.72 MB 文件数量:60 热度:19 最近下载:2025-09-17 03:08:09
    ... ": 289577, "17": 148341}, "Dark Web Complete Introduction to the DeepDark ... Dark Web.mp4": 8605862, "1. Dangers of the Dark Web.srt ... Difference between the Deep web and the Dark web.mp4": 4570251, " ... Difference between the Deep web and the Dark web.srt": 2550}, ...
创建时间: 2022-09-24 09:26:22 大小:1.5 GB 文件数量:59 热度:7 最近下载:2025-03-10 12:52:04
    ... 1284300216, "Dark.Web.2019.s01e02.WebRip.1080p.mkv": 1372708655, "Dark.Web.2019.s01e03 ... .WebRip.1080p.mkv": 1252018889, "Dark.Web.2019.s01e04 ... .WebRip.1080p.mkv": 1283315744, "Dark.Web.2019.s01e05 ...
创建时间: 2022-10-06 09:30:25 大小:13.58 GB 文件数量:10 热度:2 最近下载:2025-01-04 22:46:08
    {"Importante Leeme!.vbs": 213, "Dark.Web.Cicada.3301.2021.720p-dual-lat.mkv": 2119729755, "Descargar Películas, Series y Animes...url": 50}
创建时间: 2022-10-15 09:10:55 大小:1.97 GB 文件数量:3 热度:2 最近下载:2025-02-25 20:08:02
    {"Dark.Web.Cicada.3301.2021.1080P-Dual-Lat.mp4": 2002513592, "Dark.Web.Cicada.3301.2021.1080p-dual-lat.srt": 114853, "Descargar Películas, Series y Animes Gratis....url": 50}
创建时间: 2022-10-16 06:54:57 大小:1.87 GB 文件数量:3 热度:5 最近下载:2025-07-07 07:44:01
    {"LEIA-ME.txt": 330, "BLUDV.TO.url": 121, "GRUPO TELEGRAM.url": 130, "TorrentDosFilmes2.TV.url": 133, "Dark Web - Cicada 3301 2022 BluRay 1080p DUAL 5.1.mkv": 2659782061}
创建时间: 2022-10-16 16:57:41 大小:2.48 GB 文件数量:5 热度:3 最近下载:2025-01-03 01:15:07
    {"1XBET.COM_promo_SHREK_dinheiro_livre.mp4": 22983105, "Dark Web - Cicada 3301 2022 1080p BluRay DUAL 5.1.mkv": 2659191669, "Dark Web - Cicada 3301 2022 1080p BluRay DUAL 5.1.mp4": 65685451}
创建时间: 2022-10-19 15:22:43 大小:2.56 GB 文件数量:3 热度:6 最近下载:2025-08-21 07:11:01
    {"Descargado desde alt-torrent.com.txt": 83, "Dark Web - Cicada 3301 (2021) WEBDL 1080p LAT - ZeiZ.jpg": 8331, "Dark Web - Cicada 3301 (2021) WEBDL 1080p LAT - ZeiZ.mkv": 14058434786}
创建时间: 2022-10-23 06:39:20 大小:13.09 GB 文件数量:3 热度:6 最近下载:2025-01-05 08:10:04